sensor_id;sensor_type;location;lat;lon;timestamp;temperature;humidity
77865;DHT22;67061;48.524;9.040;2023-06-10T00:01:44;15.60;75.90
77865;DHT22;67061;48.524;9.040;2023-06-10T00:04:12;15.50;76.70
77865;DHT22;67061;48.524;9.040;2023-06-10T00:06:39;15.30;77.00
77865;DHT22;67061;48.524;9.040;2023-06-10T00:09:07;15.20;78.20
77865;DHT22;67061;48.524;9.040;2023-06-10T00:11:35;15.00;79.10
77865;DHT22;67061;48.524;9.040;2023-06-10T00:14:03;15.00;79.20
77865;DHT22;67061;48.524;9.040;2023-06-10T00:16:31;15.00;79.40
77865;DHT22;67061;48.524;9.040;2023-06-10T00:18:59;15.00;78.80
77865;DHT22;67061;48.524;9.040;2023-06-10T00:21:26;14.90;79.50
77865;DHT22;67061;48.524;9.040;2023-06-10T00:23:53;14.90;79.30
77865;DHT22;67061;48.524;9.040;2023-06-10T00:26:21;14.90;79.60
77865;DHT22;67061;48.524;9.040;2023-06-10T00:28:48;14.90;79.40
77865;DHT22;67061;48.524;9.040;2023-06-10T00:31:15;14.90;79.40
77865;DHT22;67061;48.524;9.040;2023-06-10T00:33:44;14.80;79.60
77865;DHT22;67061;48.524;9.040;2023-06-10T00:36:11;14.80;79.80
77865;DHT22;67061;48.524;9.040;2023-06-10T00:38:37;14.70;80.10
77865;DHT22;67061;48.524;9.040;2023-06-10T00:41:06;14.70;79.90
77865;DHT22;67061;48.524;9.040;2023-06-10T00:43:33;14.60;79.70
77865;DHT22;67061;48.524;9.040;2023-06-10T00:46:00;14.50;80.50
77865;DHT22;67061;48.524;9.040;2023-06-10T00:48:27;14.50;80.80
77865;DHT22;67061;48.524;9.040;2023-06-10T00:50:56;14.40;81.00
77865;DHT22;67061;48.524;9.040;2023-06-10T00:53:23;14.30;81.40
77865;DHT22;67061;48.524;9.040;2023-06-10T00:55:51;14.30;81.60
77865;DHT22;67061;48.524;9.040;2023-06-10T00:58:18;14.20;81.70
77865;DHT22;67061;48.524;9.040;2023-06-10T01:00:45;14.10;81.90
77865;DHT22;67061;48.524;9.040;2023-06-10T01:03:12;14.10;82.10
77865;DHT22;67061;48.524;9.040;2023-06-10T01:05:39;14.10;82.30
77865;DHT22;67061;48.524;9.040;2023-06-10T01:08:15;14.10;83.00
77865;DHT22;67061;48.524;9.040;2023-06-10T01:10:51;14.00;82.50
77865;DHT22;67061;48.524;9.040;2023-06-10T01:13:20;14.00;81.80
77865;DHT22;67061;48.524;9.040;2023-06-10T01:15:49;14.00;82.50
77865;DHT22;67061;48.524;9.040;2023-06-10T01:18:16;13.90;83.10
77865;DHT22;67061;48.524;9.040;2023-06-10T01:20:44;13.90;83.20
77865;DHT22;67061;48.524;9.040;2023-06-10T01:23:13;13.90;83.00
77865;DHT22;67061;48.524;9.040;2023-06-10T01:25:45;13.90;82.80
77865;DHT22;67061;48.524;9.040;2023-06-10T01:28:14;13.90;83.20
77865;DHT22;67061;48.524;9.040;2023-06-10T01:30:59;13.90;82.80
77865;DHT22;67061;48.524;9.040;2023-06-10T01:33:29;13.80;83.40
77865;DHT22;67061;48.524;9.040;2023-06-10T01:35:57;13.70;83.40
77865;DHT22;67061;48.524;9.040;2023-06-10T01:38:26;13.70;84.20
77865;DHT22;67061;48.524;9.040;2023-06-10T01:40:55;13.70;84.00
77865;DHT22;67061;48.524;9.040;2023-06-10T01:43:23;13.60;82.70
77865;DHT22;67061;48.524;9.040;2023-06-10T01:45:50;13.60;84.60
77865;DHT22;67061;48.524;9.040;2023-06-10T01:48:17;13.50;84.20
77865;DHT22;67061;48.524;9.040;2023-06-10T01:50:44;13.50;84.50
77865;DHT22;67061;48.524;9.040;2023-06-10T01:53:11;13.50;84.70
77865;DHT22;67061;48.524;9.040;2023-06-10T01:55:39;13.50;84.80
77865;DHT22;67061;48.524;9.040;2023-06-10T01:58:06;13.50;84.70
77865;DHT22;67061;48.524;9.040;2023-06-10T02:00:33;13.50;84.70
77865;DHT22;67061;48.524;9.040;2023-06-10T02:02:59;13.50;84.60
77865;DHT22;67061;48.524;9.040;2023-06-10T02:05:26;13.50;84.60
77865;DHT22;67061;48.524;9.040;2023-06-10T02:07:53;13.40;85.00
77865;DHT22;67061;48.524;9.040;2023-06-10T02:10:20;13.30;84.10
77865;DHT22;67061;48.524;9.040;2023-06-10T02:12:49;13.30;85.10
77865;DHT22;67061;48.524;9.040;2023-06-10T02:15:16;13.30;85.00
77865;DHT22;67061;48.524;9.040;2023-06-10T02:17:42;13.30;85.30
77865;DHT22;67061;48.524;9.040;2023-06-10T02:20:11;13.10;84.60
77865;DHT22;67061;48.524;9.040;2023-06-10T02:22:39;13.10;85.60
77865;DHT22;67061;48.524;9.040;2023-06-10T02:25:07;13.10;85.60
77865;DHT22;67061;48.524;9.040;2023-06-10T02:27:34;13.00;85.70
77865;DHT22;67061;48.524;9.040;2023-06-10T02:30:02;13.00;85.90
77865;DHT22;67061;48.524;9.040;2023-06-10T02:32:29;12.90;86.10
77865;DHT22;67061;48.524;9.040;2023-06-10T02:34:56;12.90;86.60
77865;DHT22;67061;48.524;9.040;2023-06-10T02:37:23;12.80;87.40
77865;DHT22;67061;48.524;9.040;2023-06-10T02:39:50;12.70;87.60
77865;DHT22;67061;48.524;9.040;2023-06-10T02:42:17;12.70;88.00
77865;DHT22;67061;48.524;9.040;2023-06-10T02:44:43;12.70;87.20
77865;DHT22;67061;48.524;9.040;2023-06-10T02:47:12;12.70;87.20
77865;DHT22;67061;48.524;9.040;2023-06-10T02:49:39;12.70;87.00
77865;DHT22;67061;48.524;9.040;2023-06-10T02:52:06;12.60;87.40
77865;DHT22;67061;48.524;9.040;2023-06-10T02:54:33;12.60;87.50
77865;DHT22;67061;48.524;9.040;2023-06-10T02:57:01;12.50;87.50
77865;DHT22;67061;48.524;9.040;2023-06-10T02:59:28;12.50;87.60
77865;DHT22;67061;48.524;9.040;2023-06-10T03:01:55;12.50;87.40
77865;DHT22;67061;48.524;9.040;2023-06-10T03:04:23;12.50;87.80
77865;DHT22;67061;48.524;9.040;2023-06-10T03:06:51;12.50;87.70
77865;DHT22;67061;48.524;9.040;2023-06-10T03:09:18;12.50;88.00
77865;DHT22;67061;48.524;9.040;2023-06-10T03:11:44;12.50;88.00
77865;DHT22;67061;48.524;9.040;2023-06-10T03:14:11;12.40;88.70
77865;DHT22;67061;48.524;9.040;2023-06-10T03:16:38;12.40;88.60
77865;DHT22;67061;48.524;9.040;2023-06-10T03:19:06;12.40;88.90
77865;DHT22;67061;48.524;9.040;2023-06-10T03:21:35;12.50;88.70
77865;DHT22;67061;48.524;9.040;2023-06-10T03:24:03;12.50;88.50
77865;DHT22;67061;48.524;9.040;2023-06-10T03:26:30;12.50;88.40
77865;DHT22;67061;48.524;9.040;2023-06-10T03:28:57;12.40;88.50
77865;DHT22;67061;48.524;9.040;2023-06-10T03:31:24;12.40;88.50
77865;DHT22;67061;48.524;9.040;2023-06-10T03:33:51;12.30;88.50
77865;DHT22;67061;48.524;9.040;2023-06-10T03:36:18;12.30;88.40
77865;DHT22;67061;48.524;9.040;2023-06-10T03:38:46;12.30;89.70
77865;DHT22;67061;48.524;9.040;2023-06-10T03:41:13;12.30;89.60
77865;DHT22;67061;48.524;9.040;2023-06-10T03:43:40;12.30;89.50
77865;DHT22;67061;48.524;9.040;2023-06-10T03:46:07;12.30;90.10
77865;DHT22;67061;48.524;9.040;2023-06-10T03:48:34;12.30;89.50
77865;DHT22;67061;48.524;9.040;2023-06-10T03:51:02;12.30;88.70
77865;DHT22;67061;48.524;9.040;2023-06-10T03:53:28;12.30;89.20
77865;DHT22;67061;48.524;9.040;2023-06-10T03:55:57;12.30;89.50
77865;DHT22;67061;48.524;9.040;2023-06-10T03:58:24;12.20;89.20
77865;DHT22;67061;48.524;9.040;2023-06-10T04:00:51;12.20;89.30
77865;DHT22;67061;48.524;9.040;2023-06-10T04:03:19;12.20;89.70
77865;DHT22;67061;48.524;9.040;2023-06-10T04:05:46;12.10;90.80
77865;DHT22;67061;48.524;9.040;2023-06-10T04:08:13;12.20;89.90
77865;DHT22;67061;48.524;9.040;2023-06-10T04:10:40;12.20;90.40
77865;DHT22;67061;48.524;9.040;2023-06-10T04:13:09;12.20;89.90
77865;DHT22;67061;48.524;9.040;2023-06-10T04:15:36;12.30;89.70
77865;DHT22;67061;48.524;9.040;2023-06-10T04:18:04;12.30;89.90
77865;DHT22;67061;48.524;9.040;2023-06-10T04:20:31;12.40;90.70
77865;DHT22;67061;48.524;9.040;2023-06-10T04:22:58;12.50;89.80
77865;DHT22;67061;48.524;9.040;2023-06-10T04:25:27;12.50;89.80
77865;DHT22;67061;48.524;9.040;2023-06-10T04:27:54;12.50;90.50
77865;DHT22;67061;48.524;9.040;2023-06-10T04:30:23;12.50;90.80
77865;DHT22;67061;48.524;9.040;2023-06-10T04:32:50;12.60;90.60
77865;DHT22;67061;48.524;9.040;2023-06-10T04:35:17;12.70;91.20
77865;DHT22;67061;48.524;9.040;2023-06-10T04:37:45;12.70;90.90
77865;DHT22;67061;48.524;9.040;2023-06-10T04:40:12;12.80;92.10
77865;DHT22;67061;48.524;9.040;2023-06-10T04:42:39;12.80;90.90
77865;DHT22;67061;48.524;9.040;2023-06-10T04:45:07;12.90;90.20
77865;DHT22;67061;48.524;9.040;2023-06-10T04:47:36;13.00;89.10
77865;DHT22;67061;48.524;9.040;2023-06-10T04:50:03;13.00;88.10
77865;DHT22;67061;48.524;9.040;2023-06-10T04:52:31;13.00;88.00
77865;DHT22;67061;48.524;9.040;2023-06-10T04:54:59;13.00;88.00
77865;DHT22;67061;48.524;9.040;2023-06-10T04:57:26;13.00;88.40
77865;DHT22;67061;48.524;9.040;2023-06-10T04:59:53;12.90;88.50
77865;DHT22;67061;48.524;9.040;2023-06-10T05:02:21;12.90;88.70
77865;DHT22;67061;48.524;9.040;2023-06-10T05:04:49;12.80;89.20
77865;DHT22;67061;48.524;9.040;2023-06-10T05:07:16;12.80;89.60
77865;DHT22;67061;48.524;9.040;2023-06-10T05:09:43;12.80;89.70
77865;DHT22;67061;48.524;9.040;2023-06-10T05:12:10;12.90;89.80
77865;DHT22;67061;48.524;9.040;2023-06-10T05:14:37;13.00;89.50
77865;DHT22;67061;48.524;9.040;2023-06-10T05:17:05;13.10;89.20
77865;DHT22;67061;48.524;9.040;2023-06-10T05:19:32;13.30;89.10
77865;DHT22;67061;48.524;9.040;2023-06-10T05:22:03;13.30;88.80
77865;DHT22;67061;48.524;9.040;2023-06-10T05:24:30;13.50;88.30
77865;DHT22;67061;48.524;9.040;2023-06-10T05:26:57;13.50;88.20
77865;DHT22;67061;48.524;9.040;2023-06-10T05:29:24;13.70;88.00
77865;DHT22;67061;48.524;9.040;2023-06-10T05:31:51;13.90;87.80
77865;DHT22;67061;48.524;9.040;2023-06-10T05:34:18;14.00;87.10
77865;DHT22;67061;48.524;9.040;2023-06-10T05:36:45;14.20;87.10
77865;DHT22;67061;48.524;9.040;2023-06-10T05:39:13;14.40;86.70
77865;DHT22;67061;48.524;9.040;2023-06-10T05:41:41;14.60;86.30
77865;DHT22;67061;48.524;9.040;2023-06-10T05:44:08;14.80;85.00
77865;DHT22;67061;48.524;9.040;2023-06-10T05:46:35;14.80;83.50
77865;DHT22;67061;48.524;9.040;2023-06-10T05:49:01;14.80;82.90
77865;DHT22;67061;48.524;9.040;2023-06-10T05:51:28;14.80;82.80
77865;DHT22;67061;48.524;9.040;2023-06-10T05:53:55;14.80;82.60
77865;DHT22;67061;48.524;9.040;2023-06-10T05:56:24;14.80;83.00
77865;DHT22;67061;48.524;9.040;2023-06-10T05:58:51;14.90;82.00
77865;DHT22;67061;48.524;9.040;2023-06-10T06:01:18;15.00;82.50
77865;DHT22;67061;48.524;9.040;2023-06-10T06:03:45;15.00;81.70
77865;DHT22;67061;48.524;9.040;2023-06-10T06:06:11;15.10;81.30
77865;DHT22;67061;48.524;9.040;2023-06-10T06:08:38;15.20;81.10
77865;DHT22;67061;48.524;9.040;2023-06-10T06:11:05;15.30;81.10
77865;DHT22;67061;48.524;9.040;2023-06-10T06:13:34;15.40;80.90
77865;DHT22;67061;48.524;9.040;2023-06-10T06:16:00;15.60;81.00
77865;DHT22;67061;48.524;9.040;2023-06-10T06:18:28;15.70;79.40
77865;DHT22;67061;48.524;9.040;2023-06-10T06:20:55;15.80;78.90
77865;DHT22;67061;48.524;9.040;2023-06-10T06:23:21;15.90;78.90
77865;DHT22;67061;48.524;9.040;2023-06-10T06:25:48;16.00;78.60
77865;DHT22;67061;48.524;9.040;2023-06-10T06:28:15;16.00;78.60
77865;DHT22;67061;48.524;9.040;2023-06-10T06:30:45;16.20;79.20
77865;DHT22;67061;48.524;9.040;2023-06-10T06:33:12;16.40;78.50
77865;DHT22;67061;48.524;9.040;2023-06-10T06:35:39;16.60;77.40
77865;DHT22;67061;48.524;9.040;2023-06-10T06:38:06;16.80;76.00
77865;DHT22;67061;48.524;9.040;2023-06-10T06:40:33;16.90;76.30
77865;DHT22;67061;48.524;9.040;2023-06-10T06:43:00;17.00;76.30
77865;DHT22;67061;48.524;9.040;2023-06-10T06:45:26;17.10;76.80
77865;DHT22;67061;48.524;9.040;2023-06-10T06:47:55;17.30;75.80
77865;DHT22;67061;48.524;9.040;2023-06-10T06:50:22;17.40;74.80
77865;DHT22;67061;48.524;9.040;2023-06-10T06:52:49;17.40;74.00
77865;DHT22;67061;48.524;9.040;2023-06-10T06:55:16;17.50;74.00
77865;DHT22;67061;48.524;9.040;2023-06-10T06:57:43;17.50;74.20
77865;DHT22;67061;48.524;9.040;2023-06-10T07:00:10;17.50;74.10
77865;DHT22;67061;48.524;9.040;2023-06-10T07:02:37;17.60;73.90
77865;DHT22;67061;48.524;9.040;2023-06-10T07:05:07;17.60;73.30
77865;DHT22;67061;48.524;9.040;2023-06-10T07:07:34;17.60;73.50
77865;DHT22;67061;48.524;9.040;2023-06-10T07:10:01;17.80;74.40
77865;DHT22;67061;48.524;9.040;2023-06-10T07:12:28;17.80;73.40
77865;DHT22;67061;48.524;9.040;2023-06-10T07:14:55;17.80;73.30
77865;DHT22;67061;48.524;9.040;2023-06-10T07:17:22;17.90;73.50
77865;DHT22;67061;48.524;9.040;2023-06-10T07:19:49;18.00;73.50
77865;DHT22;67061;48.524;9.040;2023-06-10T07:22:18;18.10;73.20
77865;DHT22;67061;48.524;9.040;2023-06-10T07:24:45;18.30;72.30
77865;DHT22;67061;48.524;9.040;2023-06-10T07:27:12;18.50;72.20
77865;DHT22;67061;48.524;9.040;2023-06-10T07:29:39;18.70;71.30
77865;DHT22;67061;48.524;9.040;2023-06-10T07:32:06;18.80;70.80
77865;DHT22;67061;48.524;9.040;2023-06-10T07:34:34;19.00;71.30
77865;DHT22;67061;48.524;9.040;2023-06-10T07:37:01;19.10;69.90
77865;DHT22;67061;48.524;9.040;2023-06-10T07:39:30;19.20;70.50
77865;DHT22;67061;48.524;9.040;2023-06-10T07:41:57;19.50;70.70
77865;DHT22;67061;48.524;9.040;2023-06-10T07:44:24;19.70;68.30
77865;DHT22;67061;48.524;9.040;2023-06-10T07:46:51;19.90;68.00
77865;DHT22;67061;48.524;9.040;2023-06-10T07:49:18;20.00;67.60
77865;DHT22;67061;48.524;9.040;2023-06-10T07:51:45;20.30;66.50
77865;DHT22;67061;48.524;9.040;2023-06-10T07:54:12;20.30;66.60
77865;DHT22;67061;48.524;9.040;2023-06-10T07:56:41;20.50;66.10
77865;DHT22;67061;48.524;9.040;2023-06-10T07:59:08;20.60;64.70
77865;DHT22;67061;48.524;9.040;2023-06-10T08:01:35;20.70;64.70
77865;DHT22;67061;48.524;9.040;2023-06-10T08:04:05;20.80;64.00
77865;DHT22;67061;48.524;9.040;2023-06-10T08:06:32;20.90;63.40
77865;DHT22;67061;48.524;9.040;2023-06-10T08:08:59;21.00;63.10
77865;DHT22;67061;48.524;9.040;2023-06-10T08:11:26;21.10;62.80
77865;DHT22;67061;48.524;9.040;2023-06-10T08:13:55;21.20;63.50
77865;DHT22;67061;48.524;9.040;2023-06-10T08:16:22;21.40;61.90
77865;DHT22;67061;48.524;9.040;2023-06-10T08:18:49;21.50;60.90
77865;DHT22;67061;48.524;9.040;2023-06-10T08:21:16;21.50;60.40
77865;DHT22;67061;48.524;9.040;2023-06-10T08:23:43;21.60;59.70
77865;DHT22;67061;48.524;9.040;2023-06-10T08:26:11;21.60;60.30
77865;DHT22;67061;48.524;9.040;2023-06-10T08:28:38;21.50;60.70
77865;DHT22;67061;48.524;9.040;2023-06-10T08:31:06;21.70;60.90
77865;DHT22;67061;48.524;9.040;2023-06-10T08:33:33;21.70;60.40
77865;DHT22;67061;48.524;9.040;2023-06-10T08:36:00;21.80;59.70
77865;DHT22;67061;48.524;9.040;2023-06-10T08:38:27;21.90;59.50
77865;DHT22;67061;48.524;9.040;2023-06-10T08:40:56;21.90;59.00
77865;DHT22;67061;48.524;9.040;2023-06-10T08:43:32;22.00;58.70
77865;DHT22;67061;48.524;9.040;2023-06-10T08:46:00;21.90;58.40
77865;DHT22;67061;48.524;9.040;2023-06-10T08:48:30;22.00;58.30
77865;DHT22;67061;48.524;9.040;2023-06-10T08:50:57;22.10;58.20
77865;DHT22;67061;48.524;9.040;2023-06-10T08:53:26;22.20;57.70
77865;DHT22;67061;48.524;9.040;2023-06-10T08:55:55;22.30;57.80
77865;DHT22;67061;48.524;9.040;2023-06-10T08:58:23;22.30;58.40
77865;DHT22;67061;48.524;9.040;2023-06-10T09:00:50;22.30;57.10
77865;DHT22;67061;48.524;9.040;2023-06-10T09:03:18;22.40;56.70
77865;DHT22;67061;48.524;9.040;2023-06-10T09:05:47;22.50;57.00
77865;DHT22;67061;48.524;9.040;2023-06-10T09:08:15;22.70;57.20
77865;DHT22;67061;48.524;9.040;2023-06-10T09:10:42;22.80;55.90
77865;DHT22;67061;48.524;9.040;2023-06-10T09:13:10;22.80;55.60
77865;DHT22;67061;48.524;9.040;2023-06-10T09:15:37;22.90;56.20
77865;DHT22;67061;48.524;9.040;2023-06-10T09:18:05;23.00;55.60
77865;DHT22;67061;48.524;9.040;2023-06-10T09:20:32;23.10;56.10
77865;DHT22;67061;48.524;9.040;2023-06-10T09:23:01;23.20;55.50
77865;DHT22;67061;48.524;9.040;2023-06-10T09:25:38;23.30;54.70
77865;DHT22;67061;48.524;9.040;2023-06-10T09:28:13;23.30;54.70
77865;DHT22;67061;48.524;9.040;2023-06-10T09:30:40;23.30;55.20
77865;DHT22;67061;48.524;9.040;2023-06-10T09:33:11;23.40;55.60
77865;DHT22;67061;48.524;9.040;2023-06-10T09:35:45;23.50;54.30
77865;DHT22;67061;48.524;9.040;2023-06-10T09:38:15;23.40;53.90
77865;DHT22;67061;48.524;9.040;2023-06-10T09:40:49;23.40;54.60
77865;DHT22;67061;48.524;9.040;2023-06-10T09:43:17;23.40;54.60
77865;DHT22;67061;48.524;9.040;2023-06-10T09:45:44;23.60;55.20
77865;DHT22;67061;48.524;9.040;2023-06-10T09:48:11;23.80;54.00
77865;DHT22;67061;48.524;9.040;2023-06-10T09:50:42;23.90;53.00
77865;DHT22;67061;48.524;9.040;2023-06-10T09:53:10;23.80;53.70
77865;DHT22;67061;48.524;9.040;2023-06-10T09:55:39;23.90;53.20
77865;DHT22;67061;48.524;9.040;2023-06-10T09:58:06;23.90;51.80
77865;DHT22;67061;48.524;9.040;2023-06-10T10:00:34;23.90;51.90
77865;DHT22;67061;48.524;9.040;2023-06-10T10:03:01;24.00;52.70
77865;DHT22;67061;48.524;9.040;2023-06-10T10:05:29;24.20;51.70
77865;DHT22;67061;48.524;9.040;2023-06-10T10:07:56;24.40;51.30
77865;DHT22;67061;48.524;9.040;2023-06-10T10:10:23;24.40;49.80
77865;DHT22;67061;48.524;9.040;2023-06-10T10:12:54;24.50;51.20
77865;DHT22;67061;48.524;9.040;2023-06-10T10:15:24;24.60;50.30
77865;DHT22;67061;48.524;9.040;2023-06-10T10:17:55;24.50;50.20
77865;DHT22;67061;48.524;9.040;2023-06-10T10:20:27;24.50;50.20
77865;DHT22;67061;48.524;9.040;2023-06-10T10:22:57;24.50;49.60
77865;DHT22;67061;48.524;9.040;2023-06-10T10:25:27;24.60;50.00
77865;DHT22;67061;48.524;9.040;2023-06-10T10:27:59;24.60;50.00
77865;DHT22;67061;48.524;9.040;2023-06-10T10:30:30;24.70;49.70
77865;DHT22;67061;48.524;9.040;2023-06-10T10:33:05;24.70;49.60
77865;DHT22;67061;48.524;9.040;2023-06-10T10:35:34;25.00;48.40
77865;DHT22;67061;48.524;9.040;2023-06-10T10:38:05;25.00;48.20
77865;DHT22;67061;48.524;9.040;2023-06-10T10:40:33;25.10;47.90
77865;DHT22;67061;48.524;9.040;2023-06-10T10:43:02;25.20;47.50
77865;DHT22;67061;48.524;9.040;2023-06-10T10:45:29;25.20;47.70
77865;DHT22;67061;48.524;9.040;2023-06-10T10:47:56;25.20;49.00
77865;DHT22;67061;48.524;9.040;2023-06-10T10:50:24;25.30;48.50
77865;DHT22;67061;48.524;9.040;2023-06-10T10:52:58;25.40;48.20
77865;DHT22;67061;48.524;9.040;2023-06-10T10:55:26;25.60;47.20
77865;DHT22;67061;48.524;9.040;2023-06-10T10:57:54;25.60;47.00
77865;DHT22;67061;48.524;9.040;2023-06-10T11:00:28;25.60;48.00
77865;DHT22;67061;48.524;9.040;2023-06-10T11:02:59;25.80;46.10
77865;DHT22;67061;48.524;9.040;2023-06-10T11:05:37;25.70;46.00
77865;DHT22;67061;48.524;9.040;2023-06-10T11:08:05;25.60;45.20
77865;DHT22;67061;48.524;9.040;2023-06-10T11:10:33;25.60;45.90
77865;DHT22;67061;48.524;9.040;2023-06-10T11:13:05;25.80;46.40
77865;DHT22;67061;48.524;9.040;2023-06-10T11:15:38;26.10;45.10
77865;DHT22;67061;48.524;9.040;2023-06-10T11:18:20;26.20;45.00
77865;DHT22;67061;48.524;9.040;2023-06-10T11:20:55;26.20;44.90
77865;DHT22;67061;48.524;9.040;2023-06-10T11:23:40;26.30;43.70
77865;DHT22;67061;48.524;9.040;2023-06-10T11:26:15;26.10;44.20
77865;DHT22;67061;48.524;9.040;2023-06-10T11:29:00;26.00;44.40
77865;DHT22;67061;48.524;9.040;2023-06-10T11:31:30;26.00;44.40
77865;DHT22;67061;48.524;9.040;2023-06-10T11:33:59;26.00;45.40
77865;DHT22;67061;48.524;9.040;2023-06-10T11:36:27;26.30;45.50
77865;DHT22;67061;48.524;9.040;2023-06-10T11:38:57;26.70;44.30
77865;DHT22;67061;48.524;9.040;2023-06-10T11:41:25;27.10;42.80
77865;DHT22;67061;48.524;9.040;2023-06-10T11:43:53;27.20;42.80
77865;DHT22;67061;48.524;9.040;2023-06-10T11:46:21;27.10;42.20
77865;DHT22;67061;48.524;9.040;2023-06-10T11:48:53;27.20;43.40
77865;DHT22;67061;48.524;9.040;2023-06-10T11:51:20;27.30;43.60
77865;DHT22;67061;48.524;9.040;2023-06-10T11:53:49;27.40;42.90
77865;DHT22;67061;48.524;9.040;2023-06-10T11:56:20;27.30;43.50
77865;DHT22;67061;48.524;9.040;2023-06-10T11:58:52;27.50;41.10
77865;DHT22;67061;48.524;9.040;2023-06-10T12:01:20;27.30;40.60
77865;DHT22;67061;48.524;9.040;2023-06-10T12:03:57;27.30;41.70
77865;DHT22;67061;48.524;9.040;2023-06-10T12:06:24;27.70;41.10
77865;DHT22;67061;48.524;9.040;2023-06-10T12:08:51;28.00;40.00
77865;DHT22;67061;48.524;9.040;2023-06-10T12:11:18;28.30;40.80
77865;DHT22;67061;48.524;9.040;2023-06-10T12:13:47;28.50;39.90
77865;DHT22;67061;48.524;9.040;2023-06-10T12:16:15;27.90;39.20
77865;DHT22;67061;48.524;9.040;2023-06-10T12:18:44;27.40;40.80
77865;DHT22;67061;48.524;9.040;2023-06-10T12:21:24;27.30;40.90
77865;DHT22;67061;48.524;9.040;2023-06-10T12:24:02;27.10;40.70
77865;DHT22;67061;48.524;9.040;2023-06-10T12:26:40;26.70;41.10
77865;DHT22;67061;48.524;9.040;2023-06-10T12:29:16;26.60;42.50
77865;DHT22;67061;48.524;9.040;2023-06-10T12:31:58;26.60;42.20
77865;DHT22;67061;48.524;9.040;2023-06-10T12:34:33;26.70;41.90
77865;DHT22;67061;48.524;9.040;2023-06-10T12:37:03;26.90;42.20
77865;DHT22;67061;48.524;9.040;2023-06-10T12:39:32;26.90;40.50
77865;DHT22;67061;48.524;9.040;2023-06-10T12:41:59;26.60;41.30
77865;DHT22;67061;48.524;9.040;2023-06-10T12:44:34;26.50;41.80
77865;DHT22;67061;48.524;9.040;2023-06-10T12:47:06;26.60;42.30
77865;DHT22;67061;48.524;9.040;2023-06-10T12:49:33;26.60;40.90
77865;DHT22;67061;48.524;9.040;2023-06-10T12:52:02;26.80;41.20
77865;DHT22;67061;48.524;9.040;2023-06-10T12:54:29;27.00;39.30
77865;DHT22;67061;48.524;9.040;2023-06-10T12:56:56;26.90;40.60
77865;DHT22;67061;48.524;9.040;2023-06-10T12:59:23;27.00;41.70
77865;DHT22;67061;48.524;9.040;2023-06-10T13:01:50;27.50;41.30
77865;DHT22;67061;48.524;9.040;2023-06-10T13:04:18;27.90;39.20
77865;DHT22;67061;48.524;9.040;2023-06-10T13:06:47;28.10;38.40
77865;DHT22;67061;48.524;9.040;2023-06-10T13:09:16;28.30;38.70
77865;DHT22;67061;48.524;9.040;2023-06-10T13:11:43;28.30;38.20
77865;DHT22;67061;48.524;9.040;2023-06-10T13:14:10;28.30;38.20
77865;DHT22;67061;48.524;9.040;2023-06-10T13:16:37;28.30;37.00
77865;DHT22;67061;48.524;9.040;2023-06-10T13:19:05;28.10;38.00
77865;DHT22;67061;48.524;9.040;2023-06-10T13:21:32;27.90;38.70
77865;DHT22;67061;48.524;9.040;2023-06-10T13:24:00;27.90;38.50
77865;DHT22;67061;48.524;9.040;2023-06-10T13:26:28;27.90;38.90
77865;DHT22;67061;48.524;9.040;2023-06-10T13:28:55;27.80;38.80
77865;DHT22;67061;48.524;9.040;2023-06-10T13:31:23;27.70;39.20
77865;DHT22;67061;48.524;9.040;2023-06-10T13:33:50;27.90;39.80
77865;DHT22;67061;48.524;9.040;2023-06-10T13:36:22;28.10;39.10
77865;DHT22;67061;48.524;9.040;2023-06-10T13:38:49;28.10;38.40
77865;DHT22;67061;48.524;9.040;2023-06-10T13:41:16;28.00;38.30
77865;DHT22;67061;48.524;9.040;2023-06-10T13:43:45;28.00;37.70
77865;DHT22;67061;48.524;9.040;2023-06-10T13:46:12;28.00;37.70
77865;DHT22;67061;48.524;9.040;2023-06-10T13:48:39;28.00;38.10
77865;DHT22;67061;48.524;9.040;2023-06-10T13:51:06;28.10;37.50
77865;DHT22;67061;48.524;9.040;2023-06-10T13:53:34;28.10;38.70
77865;DHT22;67061;48.524;9.040;2023-06-10T13:56:01;28.10;38.00
77865;DHT22;67061;48.524;9.040;2023-06-10T13:58:28;27.90;37.60
77865;DHT22;67061;48.524;9.040;2023-06-10T14:00:57;27.90;38.60
77865;DHT22;67061;48.524;9.040;2023-06-10T14:03:24;28.00;38.00
77865;DHT22;67061;48.524;9.040;2023-06-10T14:05:51;27.90;38.50
77865;DHT22;67061;48.524;9.040;2023-06-10T14:08:18;28.10;38.30
77865;DHT22;67061;48.524;9.040;2023-06-10T14:10:46;28.30;36.90
77865;DHT22;67061;48.524;9.040;2023-06-10T14:13:13;28.00;37.10
77865;DHT22;67061;48.524;9.040;2023-06-10T14:15:40;27.70;37.60
77865;DHT22;67061;48.524;9.040;2023-06-10T14:18:08;27.30;38.40
77865;DHT22;67061;48.524;9.040;2023-06-10T14:20:35;27.00;39.30
77865;DHT22;67061;48.524;9.040;2023-06-10T14:23:02;26.90;40.20
77865;DHT22;67061;48.524;9.040;2023-06-10T14:25:29;26.80;40.00
77865;DHT22;67061;48.524;9.040;2023-06-10T14:27:56;26.80;41.80
77865;DHT22;67061;48.524;9.040;2023-06-10T14:30:26;27.20;43.20
77865;DHT22;67061;48.524;9.040;2023-06-10T14:32:53;27.50;41.50
77865;DHT22;67061;48.524;9.040;2023-06-10T14:35:22;27.90;40.00
77865;DHT22;67061;48.524;9.040;2023-06-10T14:37:49;28.10;39.00
77865;DHT22;67061;48.524;9.040;2023-06-10T14:40:16;28.20;38.10
77865;DHT22;67061;48.524;9.040;2023-06-10T14:42:42;28.10;37.00
77865;DHT22;67061;48.524;9.040;2023-06-10T14:45:10;27.80;36.90
77865;DHT22;67061;48.524;9.040;2023-06-10T14:47:37;27.60;37.30
77865;DHT22;67061;48.524;9.040;2023-06-10T14:50:07;27.40;37.70
77865;DHT22;67061;48.524;9.040;2023-06-10T14:52:38;27.20;38.50
77865;DHT22;67061;48.524;9.040;2023-06-10T14:55:06;27.20;39.20
77865;DHT22;67061;48.524;9.040;2023-06-10T14:57:37;27.30;40.40
77865;DHT22;67061;48.524;9.040;2023-06-10T15:00:05;27.40;40.10
77865;DHT22;67061;48.524;9.040;2023-06-10T15:02:32;27.70;40.20
77865;DHT22;67061;48.524;9.040;2023-06-10T15:05:02;27.80;39.30
77865;DHT22;67061;48.524;9.040;2023-06-10T15:07:31;27.90;39.60
77865;DHT22;67061;48.524;9.040;2023-06-10T15:10:00;28.00;38.70
77865;DHT22;67061;48.524;9.040;2023-06-10T15:12:27;27.80;38.30
77865;DHT22;67061;48.524;9.040;2023-06-10T15:14:55;27.60;39.10
77865;DHT22;67061;48.524;9.040;2023-06-10T15:17:22;27.50;39.20
77865;DHT22;67061;48.524;9.040;2023-06-10T15:19:50;27.50;39.60
77865;DHT22;67061;48.524;9.040;2023-06-10T15:22:17;27.70;38.40
77865;DHT22;67061;48.524;9.040;2023-06-10T15:24:47;27.70;39.50
77865;DHT22;67061;48.524;9.040;2023-06-10T15:27:18;27.80;39.40
77865;DHT22;67061;48.524;9.040;2023-06-10T15:29:45;27.80;39.00
77865;DHT22;67061;48.524;9.040;2023-06-10T15:32:15;27.90;39.80
77865;DHT22;67061;48.524;9.040;2023-06-10T15:34:42;27.90;39.30
77865;DHT22;67061;48.524;9.040;2023-06-10T15:37:13;27.90;39.60